sensor_id;sensor_type;location;lat;lon;timestamp;temperature;humidity
70826;SHT31;58446;41.490;22.098;2023-09-19T00:01:15;23.71;62.81
70826;SHT31;58446;41.490;22.098;2023-09-19T00:03:45;23.67;62.77
70826;SHT31;58446;41.490;22.098;2023-09-19T00:06:10;23.58;62.77
70826;SHT31;58446;41.490;22.098;2023-09-19T00:08:38;23.58;62.77
70826;SHT31;58446;41.490;22.098;2023-09-19T00:11:04;23.54;62.80
70826;SHT31;58446;41.490;22.098;2023-09-19T00:13:34;23.54;62.65
70826;SHT31;58446;41.490;22.098;2023-09-19T00:16:08;23.51;62.54
70826;SHT31;58446;41.490;22.098;2023-09-19T00:18:34;23.46;62.51
70826;SHT31;58446;41.490;22.098;2023-09-19T00:21:00;23.24;63.14
70826;SHT31;58446;41.490;22.098;2023-09-19T00:23:26;23.40;62.66
70826;SHT31;58446;41.490;22.098;2023-09-19T00:25:52;23.43;62.59
70826;SHT31;58446;41.490;22.098;2023-09-19T00:28:20;23.27;62.91
70826;SHT31;58446;41.490;22.098;2023-09-19T00:30:46;23.03;63.61
70826;SHT31;58446;41.490;22.098;2023-09-19T00:33:20;23.16;63.09
70826;SHT31;58446;41.490;22.098;2023-09-19T00:35:52;23.00;63.63
70826;SHT31;58446;41.490;22.098;2023-09-19T00:38:19;22.62;64.28
70826;SHT31;58446;41.490;22.098;2023-09-19T00:40:48;22.08;65.65
70826;SHT31;58446;41.490;22.098;2023-09-19T00:43:14;21.77;66.67
70826;SHT31;58446;41.490;22.098;2023-09-19T00:45:46;21.46;67.66
70826;SHT31;58446;41.490;22.098;2023-09-19T00:48:14;21.71;67.58
70826;SHT31;58446;41.490;22.098;2023-09-19T00:50:41;22.17;65.95
70826;SHT31;58446;41.490;22.098;2023-09-19T00:53:09;22.55;64.79
70826;SHT31;58446;41.490;22.098;2023-09-19T00:55:38;22.70;64.14
70826;SHT31;58446;41.490;22.098;2023-09-19T00:58:05;22.60;64.45
70826;SHT31;58446;41.490;22.098;2023-09-19T01:00:33;22.65;64.28
70826;SHT31;58446;41.490;22.098;2023-09-19T01:03:02;22.68;64.09
70826;SHT31;58446;41.490;22.098;2023-09-19T01:05:28;22.48;64.83
70826;SHT31;58446;41.490;22.098;2023-09-19T01:07:55;22.44;64.93
70826;SHT31;58446;41.490;22.098;2023-09-19T01:10:20;22.49;64.89
70826;SHT31;58446;41.490;22.098;2023-09-19T01:18:27;22.92;63.60
70826;SHT31;58446;41.490;22.098;2023-09-19T01:24:15;23.00;63.20
70826;SHT31;58446;41.490;22.098;2023-09-19T01:27:17;23.13;63.00
70826;SHT31;58446;41.490;22.098;2023-09-19T01:29:48;23.09;63.16
70826;SHT31;58446;41.490;22.098;2023-09-19T01:32:19;23.06;63.16
70826;SHT31;58446;41.490;22.098;2023-09-19T01:34:55;23.07;63.02
70826;SHT31;58446;41.490;22.098;2023-09-19T01:37:30;22.90;63.37
70826;SHT31;58446;41.490;22.098;2023-09-19T01:39:59;22.83;63.57
70826;SHT31;58446;41.490;22.098;2023-09-19T01:45:47;22.68;64.35
70826;SHT31;58446;41.490;22.098;2023-09-19T01:50:55;21.45;67.62
70826;SHT31;58446;41.490;22.098;2023-09-19T01:53:30;21.66;67.64
70826;SHT31;58446;41.490;22.098;2023-09-19T01:55:59;21.69;67.23
70826;SHT31;58446;41.490;22.098;2023-09-19T01:58:42;21.63;67.61
70826;SHT31;58446;41.490;22.098;2023-09-19T02:01:12;22.01;66.36
70826;SHT31;58446;41.490;22.098;2023-09-19T02:03:41;21.98;66.31
70826;SHT31;58446;41.490;22.098;2023-09-19T02:06:07;22.08;66.09
70826;SHT31;58446;41.490;22.098;2023-09-19T02:08:38;22.18;65.64
70826;SHT31;58446;41.490;22.098;2023-09-19T02:11:04;22.25;65.48
70826;SHT31;58446;41.490;22.098;2023-09-19T02:13:31;22.42;65.03
70826;SHT31;58446;41.490;22.098;2023-09-19T02:15:57;22.47;64.91
70826;SHT31;58446;41.490;22.098;2023-09-19T02:18:23;22.35;65.15
70826;SHT31;58446;41.490;22.098;2023-09-19T02:20:48;22.41;65.08
70826;SHT31;58446;41.490;22.098;2023-09-19T02:23:14;22.12;65.41
70826;SHT31;58446;41.490;22.098;2023-09-19T02:25:41;22.25;65.50
70826;SHT31;58446;41.490;22.098;2023-09-19T02:28:09;22.28;65.34
70826;SHT31;58446;41.490;22.098;2023-09-19T02:30:35;22.48;64.77
70826;SHT31;58446;41.490;22.098;2023-09-19T02:33:01;22.62;64.14
70826;SHT31;58446;41.490;22.098;2023-09-19T02:35:28;22.49;64.37
70826;SHT31;58446;41.490;22.098;2023-09-19T02:37:58;22.56;64.18
70826;SHT31;58446;41.490;22.098;2023-09-19T02:40:24;22.48;64.20
70826;SHT31;58446;41.490;22.098;2023-09-19T02:42:55;22.28;64.59
70826;SHT31;58446;41.490;22.098;2023-09-19T02:45:21;22.41;64.47
70826;SHT31;58446;41.490;22.098;2023-09-19T02:47:48;21.77;65.82
70826;SHT31;58446;41.490;22.098;2023-09-19T02:50:15;21.28;66.33
70826;SHT31;58446;41.490;22.098;2023-09-19T02:52:45;21.77;66.19
70826;SHT31;58446;41.490;22.098;2023-09-19T02:55:12;21.33;65.25
70826;SHT31;58446;41.490;22.098;2023-09-19T02:57:40;20.81;67.16
70826;SHT31;58446;41.490;22.098;2023-09-19T03:00:09;21.45;66.61
70826;SHT31;58446;41.490;22.098;2023-09-19T03:02:38;21.86;65.16
70826;SHT31;58446;41.490;22.098;2023-09-19T03:05:06;22.08;64.35
70826;SHT31;58446;41.490;22.098;2023-09-19T03:07:33;22.24;63.79
70826;SHT31;58446;41.490;22.098;2023-09-19T03:09:59;22.38;63.33
70826;SHT31;58446;41.490;22.098;2023-09-19T03:12:26;22.38;63.15
70826;SHT31;58446;41.490;22.098;2023-09-19T03:14:51;22.41;62.96
70826;SHT31;58446;41.490;22.098;2023-09-19T03:17:17;22.42;62.77
70826;SHT31;58446;41.490;22.098;2023-09-19T03:19:45;22.41;62.58
70826;SHT31;58446;41.490;22.098;2023-09-19T03:22:13;22.32;62.60
70826;SHT31;58446;41.490;22.098;2023-09-19T03:24:38;22.19;62.75
70826;SHT31;58446;41.490;22.098;2023-09-19T03:27:04;21.90;62.54
70826;SHT31;58446;41.490;22.098;2023-09-19T03:29:30;21.36;63.97
70826;SHT31;58446;41.490;22.098;2023-09-19T03:31:55;20.91;65.56
70826;SHT31;58446;41.490;22.098;2023-09-19T03:34:21;20.74;67.00
70826;SHT31;58446;41.490;22.098;2023-09-19T03:36:47;20.24;67.79
70826;SHT31;58446;41.490;22.098;2023-09-19T03:39:12;20.45;67.71
70826;SHT31;58446;41.490;22.098;2023-09-19T03:41:40;20.61;67.15
70826;SHT31;58446;41.490;22.098;2023-09-19T03:44:06;20.81;66.84
70826;SHT31;58446;41.490;22.098;2023-09-19T03:46:31;21.30;65.31
70826;SHT31;58446;41.490;22.098;2023-09-19T03:48:57;21.56;64.23
70826;SHT31;58446;41.490;22.098;2023-09-19T03:51:23;21.67;63.92
70826;SHT31;58446;41.490;22.098;2023-09-19T03:53:48;21.64;63.86
70826;SHT31;58446;41.490;22.098;2023-09-19T03:56:17;21.57;63.96
70826;SHT31;58446;41.490;22.098;2023-09-19T03:58:43;21.51;64.23
70826;SHT31;58446;41.490;22.098;2023-09-19T04:01:08;21.70;63.62
70826;SHT31;58446;41.490;22.098;2023-09-19T04:03:34;21.81;63.16
70826;SHT31;58446;41.490;22.098;2023-09-19T04:06:14;21.74;63.37
70826;SHT31;58446;41.490;22.098;2023-09-19T04:08:40;21.76;63.22
70826;SHT31;58446;41.490;22.098;2023-09-19T04:11:07;21.90;62.84
70826;SHT31;58446;41.490;22.098;2023-09-19T04:13:32;21.91;62.78
70826;SHT31;58446;41.490;22.098;2023-09-19T04:15:58;21.71;63.22
70826;SHT31;58446;41.490;22.098;2023-09-19T04:18:24;21.74;63.27
70826;SHT31;58446;41.490;22.098;2023-09-19T04:20:50;21.35;64.14
70826;SHT31;58446;41.490;22.098;2023-09-19T04:23:16;21.25;65.06
70826;SHT31;58446;41.490;22.098;2023-09-19T04:25:42;21.47;64.18
70826;SHT31;58446;41.490;22.098;2023-09-19T04:28:08;21.66;63.67
70826;SHT31;58446;41.490;22.098;2023-09-19T04:30:37;21.81;63.43
70826;SHT31;58446;41.490;22.098;2023-09-19T04:33:03;21.83;63.41
70826;SHT31;58446;41.490;22.098;2023-09-19T04:35:29;21.96;63.14
70826;SHT31;58446;41.490;22.098;2023-09-19T04:37:57;22.37;62.06
70826;SHT31;58446;41.490;22.098;2023-09-19T04:40:23;22.48;62.01
70826;SHT31;58446;41.490;22.098;2023-09-19T04:42:56;22.75;61.01
70826;SHT31;58446;41.490;22.098;2023-09-19T04:45:23;22.92;60.97
70826;SHT31;58446;41.490;22.098;2023-09-19T04:47:48;22.69;62.13
70826;SHT31;58446;41.490;22.098;2023-09-19T04:50:14;22.63;61.96
70826;SHT31;58446;41.490;22.098;2023-09-19T04:52:44;23.02;61.56
70826;SHT31;58446;41.490;22.098;2023-09-19T04:55:13;23.27;60.74
70826;SHT31;58446;41.490;22.098;2023-09-19T04:57:50;23.74;59.51
70826;SHT31;58446;41.490;22.098;2023-09-19T05:00:18;24.16;57.83
70826;SHT31;58446;41.490;22.098;2023-09-19T05:02:44;24.12;58.01
70826;SHT31;58446;41.490;22.098;2023-09-19T05:05:10;24.04;58.24
70826;SHT31;58446;41.490;22.098;2023-09-19T05:07:37;24.19;57.98
70826;SHT31;58446;41.490;22.098;2023-09-19T05:10:03;24.46;57.05
70826;SHT31;58446;41.490;22.098;2023-09-19T05:12:33;23.77;58.83
70826;SHT31;58446;41.490;22.098;2023-09-19T05:14:59;23.31;60.26
70826;SHT31;58446;41.490;22.098;2023-09-19T05:17:25;23.58;59.29
70826;SHT31;58446;41.490;22.098;2023-09-19T05:19:51;23.02;61.62
70826;SHT31;58446;41.490;22.098;2023-09-19T05:22:17;22.63;62.45
70826;SHT31;58446;41.490;22.098;2023-09-19T05:24:44;22.62;62.04
70826;SHT31;58446;41.490;22.098;2023-09-19T05:27:14;22.80;62.03
70826;SHT31;58446;41.490;22.098;2023-09-19T05:29:43;22.52;62.84
70826;SHT31;58446;41.490;22.098;2023-09-19T05:32:10;22.49;62.77
70826;SHT31;58446;41.490;22.098;2023-09-19T05:34:36;22.22;63.17
70826;SHT31;58446;41.490;22.098;2023-09-19T05:37:02;22.49;62.66
70826;SHT31;58446;41.490;22.098;2023-09-19T05:39:28;22.37;63.17
70826;SHT31;58446;41.490;22.098;2023-09-19T05:41:53;22.29;63.14
70826;SHT31;58446;41.490;22.098;2023-09-19T05:44:20;22.35;63.05
70826;SHT31;58446;41.490;22.098;2023-09-19T05:46:46;22.51;63.01
70826;SHT31;58446;41.490;22.098;2023-09-19T05:49:14;22.41;64.10
70826;SHT31;58446;41.490;22.098;2023-09-19T05:51:39;22.18;63.76
70826;SHT31;58446;41.490;22.098;2023-09-19T05:54:05;22.07;65.63
70826;SHT31;58446;41.490;22.098;2023-09-19T05:56:31;21.83;66.32
70826;SHT31;58446;41.490;22.098;2023-09-19T05:58:56;21.98;65.06
70826;SHT31;58446;41.490;22.098;2023-09-19T06:01:22;22.32;63.73
70826;SHT31;58446;41.490;22.098;2023-09-19T06:03:48;22.18;65.50
70826;SHT31;58446;41.490;22.098;2023-09-19T06:06:14;22.12;65.55
70826;SHT31;58446;41.490;22.098;2023-09-19T06:08:40;22.17;64.92
70826;SHT31;58446;41.490;22.098;2023-09-19T06:11:05;22.68;63.19
70826;SHT31;58446;41.490;22.098;2023-09-19T06:13:32;22.82;64.13
70826;SHT31;58446;41.490;22.098;2023-09-19T06:15:59;22.97;63.35
70826;SHT31;58446;41.490;22.098;2023-09-19T06:18:28;22.88;64.36
70826;SHT31;58446;41.490;22.098;2023-09-19T06:20:54;22.93;63.56
70826;SHT31;58446;41.490;22.098;2023-09-19T06:23:21;22.83;63.70
70826;SHT31;58446;41.490;22.098;2023-09-19T06:25:46;22.97;63.34
70826;SHT31;58446;41.490;22.098;2023-09-19T06:28:12;22.95;63.85
70826;SHT31;58446;41.490;22.098;2023-09-19T06:30:38;23.03;63.38
70826;SHT31;58446;41.490;22.098;2023-09-19T06:33:07;23.26;62.20
70826;SHT31;58446;41.490;22.098;2023-09-19T06:35:34;23.23;62.30
70826;SHT31;58446;41.490;22.098;2023-09-19T06:38:02;23.34;62.05
70826;SHT31;58446;41.490;22.098;2023-09-19T06:40:28;23.31;61.90
70826;SHT31;58446;41.490;22.098;2023-09-19T06:42:54;23.38;62.23
70826;SHT31;58446;41.490;22.098;2023-09-19T06:45:21;23.46;61.70
70826;SHT31;58446;41.490;22.098;2023-09-19T06:47:48;23.59;62.65
70826;SHT31;58446;41.490;22.098;2023-09-19T06:50:16;23.58;62.73
70826;SHT31;58446;41.490;22.098;2023-09-19T06:52:44;23.82;61.25
70826;SHT31;58446;41.490;22.098;2023-09-19T06:55:11;23.85;61.25
70826;SHT31;58446;41.490;22.098;2023-09-19T06:57:39;24.02;60.83
70826;SHT31;58446;41.490;22.098;2023-09-19T07:00:09;24.10;61.83
70826;SHT31;58446;41.490;22.098;2023-09-19T07:02:54;24.18;60.09
70826;SHT31;58446;41.490;22.098;2023-09-19T07:05:20;24.12;60.62
70826;SHT31;58446;41.490;22.098;2023-09-19T07:07:47;24.19;61.46
70826;SHT31;58446;41.490;22.098;2023-09-19T07:10:12;24.20;59.97
70826;SHT31;58446;41.490;22.098;2023-09-19T07:12:38;23.99;60.82
70826;SHT31;58446;41.490;22.098;2023-09-19T07:15:04;23.97;61.23
70826;SHT31;58446;41.490;22.098;2023-09-19T07:17:31;24.08;61.81
70826;SHT31;58446;41.490;22.098;2023-09-19T07:19:58;24.28;60.51
70826;SHT31;58446;41.490;22.098;2023-09-19T07:22:26;24.20;59.75
70826;SHT31;58446;41.490;22.098;2023-09-19T07:24:51;24.08;60.23
70826;SHT31;58446;41.490;22.098;2023-09-19T07:27:17;24.19;60.07
70826;SHT31;58446;41.490;22.098;2023-09-19T07:29:43;24.37;60.48
70826;SHT31;58446;41.490;22.098;2023-09-19T07:32:10;24.53;59.52
70826;SHT31;58446;41.490;22.098;2023-09-19T07:34:37;24.52;58.69
70826;SHT31;58446;41.490;22.098;2023-09-19T07:37:06;24.70;59.72
70826;SHT31;58446;41.490;22.098;2023-09-19T07:39:32;24.80;58.67
70826;SHT31;58446;41.490;22.098;2023-09-19T07:42:05;24.73;58.60
70826;SHT31;58446;41.490;22.098;2023-09-19T07:44:35;24.61;58.79
70826;SHT31;58446;41.490;22.098;2023-09-19T07:47:34;24.87;58.38
70826;SHT31;58446;41.490;22.098;2023-09-19T07:50:08;25.06;58.16
70826;SHT31;58446;41.490;22.098;2023-09-19T07:52:35;25.18;58.44
70826;SHT31;58446;41.490;22.098;2023-09-19T07:55:00;25.48;57.58
70826;SHT31;58446;41.490;22.098;2023-09-19T07:57:32;25.53;56.44
70826;SHT31;58446;41.490;22.098;2023-09-19T07:59:59;25.66;56.89
70826;SHT31;58446;41.490;22.098;2023-09-19T08:02:25;25.53;55.69
70826;SHT31;58446;41.490;22.098;2023-09-19T08:04:51;25.45;56.66
70826;SHT31;58446;41.490;22.098;2023-09-19T08:07:17;25.35;56.05
70826;SHT31;58446;41.490;22.098;2023-09-19T08:09:43;25.15;57.10
70826;SHT31;58446;41.490;22.098;2023-09-19T08:12:14;25.21;57.01
70826;SHT31;58446;41.490;22.098;2023-09-19T08:14:40;25.27;57.51
70826;SHT31;58446;41.490;22.098;2023-09-19T08:17:08;25.41;56.51
70826;SHT31;58446;41.490;22.098;2023-09-19T08:19:34;25.43;57.20
70826;SHT31;58446;41.490;22.098;2023-09-19T08:22:06;25.46;55.77
70826;SHT31;58446;41.490;22.098;2023-09-19T08:24:35;25.46;56.11
70826;SHT31;58446;41.490;22.098;2023-09-19T08:27:03;25.63;55.91
70826;SHT31;58446;41.490;22.098;2023-09-19T08:29:30;25.66;55.80
70826;SHT31;58446;41.490;22.098;2023-09-19T08:31:57;25.55;55.59
70826;SHT31;58446;41.490;22.098;2023-09-19T08:34:23;25.52;55.66
70826;SHT31;58446;41.490;22.098;2023-09-19T08:36:53;25.55;55.99
70826;SHT31;58446;41.490;22.098;2023-09-19T08:39:25;25.53;55.25
70826;SHT31;58446;41.490;22.098;2023-09-19T08:41:58;25.48;54.73
70826;SHT31;58446;41.490;22.098;2023-09-19T08:44:24;25.43;54.77
70826;SHT31;58446;41.490;22.098;2023-09-19T08:46:54;25.41;55.48
70826;SHT31;58446;41.490;22.098;2023-09-19T08:49:27;25.46;55.41
70826;SHT31;58446;41.490;22.098;2023-09-19T08:52:16;25.48;55.62
70826;SHT31;58446;41.490;22.098;2023-09-19T08:54:45;25.48;55.33
70826;SHT31;58446;41.490;22.098;2023-09-19T08:57:15;25.46;55.29
70826;SHT31;58446;41.490;22.098;2023-09-19T08:59:47;25.53;54.98
70826;SHT31;58446;41.490;22.098;2023-09-19T09:02:15;25.53;54.65
70826;SHT31;58446;41.490;22.098;2023-09-19T09:04:43;25.55;55.02
70826;SHT31;58446;41.490;22.098;2023-09-19T09:07:13;25.78;54.88
70826;SHT31;58446;41.490;22.098;2023-09-19T09:09:40;26.10;54.66
70826;SHT31;58446;41.490;22.098;2023-09-19T09:12:13;26.36;52.93
70826;SHT31;58446;41.490;22.098;2023-09-19T09:14:44;26.40;52.99
70826;SHT31;58446;41.490;22.098;2023-09-19T09:17:10;26.72;52.38
70826;SHT31;58446;41.490;22.098;2023-09-19T09:19:37;26.84;51.54
70826;SHT31;58446;41.490;22.098;2023-09-19T09:22:10;26.91;50.97
70826;SHT31;58446;41.490;22.098;2023-09-19T09:24:37;27.09;51.29
70826;SHT31;58446;41.490;22.098;2023-09-19T09:27:12;27.25;50.26
70826;SHT31;58446;41.490;22.098;2023-09-19T09:29:48;27.22;49.88
70826;SHT31;58446;41.490;22.098;2023-09-19T09:32:24;27.35;49.33
70826;SHT31;58446;41.490;22.098;2023-09-19T09:34:54;27.25;49.49
70826;SHT31;58446;41.490;22.098;2023-09-19T09:37:21;27.28;48.66
70826;SHT31;58446;41.490;22.098;2023-09-19T09:39:54;27.22;48.94
70826;SHT31;58446;41.490;22.098;2023-09-19T09:42:34;27.20;48.90
70826;SHT31;58446;41.490;22.098;2023-09-19T09:45:20;27.22;48.50
70826;SHT31;58446;41.490;22.098;2023-09-19T09:47:59;27.32;49.46
70826;SHT31;58446;41.490;22.098;2023-09-19T09:50:30;27.32;49.65
70826;SHT31;58446;41.490;22.098;2023-09-19T09:53:22;27.47;48.98
70826;SHT31;58446;41.490;22.098;2023-09-19T09:56:06;27.40;48.90
70826;SHT31;58446;41.490;22.098;2023-09-19T09:58:51;27.35;49.01
70826;SHT31;58446;41.490;22.098;2023-09-19T10:01:21;27.20;49.30
70826;SHT31;58446;41.490;22.098;2023-09-19T10:03:57;27.20;48.96
70826;SHT31;58446;41.490;22.098;2023-09-19T10:06:23;27.22;49.42
70826;SHT31;58446;41.490;22.098;2023-09-19T10:09:06;27.23;48.74
70826;SHT31;58446;41.490;22.098;2023-09-19T10:11:46;27.28;49.48
70826;SHT31;58446;41.490;22.098;2023-09-19T10:14:17;27.33;50.23
70826;SHT31;58446;41.490;22.098;2023-09-19T10:16:49;27.35;48.87
70826;SHT31;58446;41.490;22.098;2023-09-19T10:19:30;27.25;49.20
70826;SHT31;58446;41.490;22.098;2023-09-19T10:22:01;27.35;49.35
70826;SHT31;58446;41.490;22.098;2023-09-19T10:24:28;27.26;49.27
70826;SHT31;58446;41.490;22.098;2023-09-19T10:26:55;27.23;49.84
70826;SHT31;58446;41.490;22.098;2023-09-19T10:29:22;27.26;50.18
70826;SHT31;58446;41.490;22.098;2023-09-19T10:31:52;27.32;50.48
70826;SHT31;58446;41.490;22.098;2023-09-19T10:34:20;27.23;51.06
70826;SHT31;58446;41.490;22.098;2023-09-19T10:36:48;26.99;51.73
70826;SHT31;58446;41.490;22.098;2023-09-19T10:39:16;27.12;51.30
70826;SHT31;58446;41.490;22.098;2023-09-19T10:41:53;27.13;50.63
70826;SHT31;58446;41.490;22.098;2023-09-19T10:44:24;27.18;48.88
70826;SHT31;58446;41.490;22.098;2023-09-19T10:46:54;27.28;48.80
70826;SHT31;58446;41.490;22.098;2023-09-19T10:49:21;27.28;48.83
70826;SHT31;58446;41.490;22.098;2023-09-19T10:51:49;27.36;48.42
70826;SHT31;58446;41.490;22.098;2023-09-19T10:54:20;27.61;47.96
70826;SHT31;58446;41.490;22.098;2023-09-19T10:56:49;27.86;48.33
70826;SHT31;58446;41.490;22.098;2023-09-19T10:59:18;28.08;47.11
70826;SHT31;58446;41.490;22.098;2023-09-19T11:01:56;28.17;47.08
70826;SHT31;58446;41.490;22.098;2023-09-19T11:04:30;28.22;47.54
70826;SHT31;58446;41.490;22.098;2023-09-19T11:07:04;28.27;47.80
70826;SHT31;58446;41.490;22.098;2023-09-19T11:09:44;28.45;47.23
70826;SHT31;58446;41.490;22.098;2023-09-19T11:15:01;28.35;47.03
70826;SHT31;58446;41.490;22.098;2023-09-19T11:17:39;28.31;45.93
70826;SHT31;58446;41.490;22.098;2023-09-19T11:30:34;28.46;46.26
70826;SHT31;58446;41.490;22.098;2023-09-19T11:33:22;28.48;46.09
70826;SHT31;58446;41.490;22.098;2023-09-19T11:49:26;28.90;45.19
70826;SHT31;58446;41.490;22.098;2023-09-19T11:51:56;29.00;45.15
70826;SHT31;58446;41.490;22.098;2023-09-19T11:54:23;28.96;44.80
70826;SHT31;58446;41.490;22.098;2023-09-19T11:56:51;29.07;45.21
70826;SHT31;58446;41.490;22.098;2023-09-19T11:59:29;29.14;44.77
70826;SHT31;58446;41.490;22.098;2023-09-19T12:02:05;29.26;45.04
70826;SHT31;58446;41.490;22.098;2023-09-19T12:04:37;29.44;43.59
70826;SHT31;58446;41.490;22.098;2023-09-19T12:07:13;29.53;43.30
70826;SHT31;58446;41.490;22.098;2023-09-19T12:09:50;29.62;43.84
70826;SHT31;58446;41.490;22.098;2023-09-19T12:12:27;29.74;43.82
70826;SHT31;58446;41.490;22.098;2023-09-19T12:14:54;29.71;42.81
70826;SHT31;58446;41.490;22.098;2023-09-19T12:17:20;29.59;42.94
70826;SHT31;58446;41.490;22.098;2023-09-19T12:19:55;29.59;43.67
70826;SHT31;58446;41.490;22.098;2023-09-19T12:22:21;29.57;43.77
70826;SHT31;58446;41.490;22.098;2023-09-19T12:24:47;29.59;43.69
70826;SHT31;58446;41.490;22.098;2023-09-19T12:27:13;29.68;44.49
70826;SHT31;58446;41.490;22.098;2023-09-19T12:29:46;29.68;44.09
70826;SHT31;58446;41.490;22.098;2023-09-19T12:32:16;29.64;44.25
70826;SHT31;58446;41.490;22.098;2023-09-19T12:34:53;29.71;44.00
70826;SHT31;58446;41.490;22.098;2023-09-19T12:37:19;29.77;42.27
70826;SHT31;58446;41.490;22.098;2023-09-19T12:39:50;29.69;42.78
70826;SHT31;58446;41.490;22.098;2023-09-19T12:42:21;29.81;42.99
70826;SHT31;58446;41.490;22.098;2023-09-19T12:44:56;29.82;42.62
70826;SHT31;58446;41.490;22.098;2023-09-19T12:47:24;29.92;41.82
70826;SHT31;58446;41.490;22.098;2023-09-19T12:50:09;29.98;42.61
70826;SHT31;58446;41.490;22.098;2023-09-19T12:52:52;30.16;43.02
70826;SHT31;58446;41.490;22.098;2023-09-19T12:55:22;30.23;41.71
70826;SHT31;58446;41.490;22.098;2023-09-19T13:00:36;30.05;42.34
70826;SHT31;58446;41.490;22.098;2023-09-19T13:06:01;29.72;42.30
70826;SHT31;58446;41.490;22.098;2023-09-19T13:08:32;29.88;41.25
70826;SHT31;58446;41.490;22.098;2023-09-19T13:11:15;30.04;41.49
70826;SHT31;58446;41.490;22.098;2023-09-19T13:14:12;30.15;41.29
70826;SHT31;58446;41.490;22.098;2023-09-19T13:16:59;30.08;42.39
70826;SHT31;58446;41.490;22.098;2023-09-19T13:19:40;30.18;41.16
70826;SHT31;58446;41.490;22.098;2023-09-19T13:25:08;30.47;43.07
70826;SHT31;58446;41.490;22.098;2023-09-19T13:27:40;30.46;42.52
70826;SHT31;58446;41.490;22.098;2023-09-19T13:30:06;30.50;42.43
70826;SHT31;58446;41.490;22.098;2023-09-19T13:32:33;30.46;42.02
70826;SHT31;58446;41.490;22.098;2023-09-19T13:34:59;30.39;40.96
70826;SHT31;58446;41.490;22.098;2023-09-19T13:37:25;30.43;40.70
70826;SHT31;58446;41.490;22.098;2023-09-19T13:39:52;30.37;40.34
70826;SHT31;58446;41.490;22.098;2023-09-19T13:42:19;30.47;42.14
70826;SHT31;58446;41.490;22.098;2023-09-19T13:44:47;30.56;41.10
70826;SHT31;58446;41.490;22.098;2023-09-19T13:47:13;30.57;40.80
70826;SHT31;58446;41.490;22.098;2023-09-19T13:49:40;30.57;41.18
70826;SHT31;58446;41.490;22.098;2023-09-19T13:52:06;30.63;40.75
70826;SHT31;58446;41.490;22.098;2023-09-19T13:54:32;30.64;39.82
70826;SHT31;58446;41.490;22.098;2023-09-19T13:56:58;30.66;39.47
70826;SHT31;58446;41.490;22.098;2023-09-19T13:59:24;30.59;38.77
70826;SHT31;58446;41.490;22.098;2023-09-19T14:01:50;30.57;38.94
70826;SHT31;58446;41.490;22.098;2023-09-19T14:04:19;30.60;39.58
70826;SHT31;58446;41.490;22.098;2023-09-19T14:06:46;30.66;39.10
70826;SHT31;58446;41.490;22.098;2023-09-19T14:09:12;30.57;38.65
70826;SHT31;58446;41.490;22.098;2023-09-19T14:11:39;30.55;39.16
70826;SHT31;58446;41.490;22.098;2023-09-19T14:14:05;30.59;39.10
70826;SHT31;58446;41.490;22.098;2023-09-19T14:16:31;30.56;39.66
70826;SHT31;58446;41.490;22.098;2023-09-19T14:18:58;30.53;38.98
70826;SHT31;58446;41.490;22.098;2023-09-19T14:21:24;30.52;39.48
70826;SHT31;58446;41.490;22.098;2023-09-19T14:23:49;30.43;39.14
70826;SHT31;58446;41.490;22.098;2023-09-19T14:26:16;30.40;39.36
70826;SHT31;58446;41.490;22.098;2023-09-19T14:28:42;30.43;39.69
70826;SHT31;58446;41.490;22.098;2023-09-19T14:31:09;30.46;39.69
70826;SHT31;58446;41.490;22.098;2023-09-19T14:33:35;30.46;39.84
70826;SHT31;58446;41.490;22.098;2023-09-19T14:36:05;30.46;39.15
70826;SHT31;58446;41.490;22.098;2023-09-19T14:38:33;30.46;40.38
70826;SHT31;58446;41.490;22.098;2023-09-19T14:41:03;30.47;40.20
70826;SHT31;58446;41.490;22.098;2023-09-19T14:43:29;30.43;40.93
70826;SHT31;58446;41.490;22.098;2023-09-19T14:45:56;30.36;41.30
70826;SHT31;58446;41.490;22.098;2023-09-19T14:48:23;30.33;41.57
70826;SHT31;58446;41.490;22.098;2023-09-19T14:50:54;30.23;41.86
70826;SHT31;58446;41.490;22.098;2023-09-19T14:53:21;30.20;42.33
70826;SHT31;58446;41.490;22.098;2023-09-19T14:55:46;30.18;42.56
70826;SHT31;58446;41.490;22.098;2023-09-19T14:58:17;30.02;42.80
70826;SHT31;58446;41.490;22.098;2023-09-19T15:00:43;29.86;43.69
70826;SHT31;58446;41.490;22.098;2023-09-19T15:03:10;29.85;44.51
70826;SHT31;58446;41.490;22.098;2023-09-19T15:05:36;29.71;44.74
70826;SHT31;58446;41.490;22.098;2023-09-19T15:08:02;29.65;44.95
70826;SHT31;58446;41.490;22.098;2023-09-19T15:10:28;29.51;45.39
70826;SHT31;58446;41.490;22.098;2023-09-19T15:12:55;29.37;46.22
70826;SHT31;58446;41.490;22.098;2023-09-19T15:15:20;29.33;46.58
70826;SHT31;58446;41.490;22.098;2023-09-19T15:17:46;29.28;46.59
70826;SHT31;58446;41.490;22.098;2023-09-19T15:20:12;29.20;46.75
70826;SHT31;58446;41.490;22.098;2023-09-19T15:22:40;29.11;47.21
70826;SHT31;58446;41.490;22.098;2023-09-19T15:25:06;29.02;47.48
70826;SHT31;58446;41.490;22.098;2023-09-19T15:27:32;28.95;47.93
70826;SHT31;58446;41.490;22.098;2023-09-19T15:29:59;28.89;48.29
70826;SHT31;58446;41.490;22.098;2023-09-19T15:32:26;28.77;48.79
70826;SHT31;58446;41.490;22.098;2023-09-19T15:34:52;28.66;49.13
70826;SHT31;58446;41.490;22.098;2023-09-19T15:37:17;28.55;49.45
70826;SHT31;58446;41.490;22.098;2023-09-19T15:39:44;28.51;49.75
70826;SHT31;58446;41.490;22.098;2023-09-19T15:42:11;28.45;49.67
70826;SHT31;58446;41.490;22.098;2023-09-19T15:44:37;28.39;50.06
70826;SHT31;58446;41.490;22.098;2023-09-19T15:47:14;28.31;50.41
70826;SHT31;58446;41.490;22.098;2023-09-19T15:49:40;28.19;50.87
70826;SHT31;58446;41.490;22.098;2023-09-19T15:52:07;28.14;51.12
70826;SHT31;58446;41.490;22.098;2023-09-19T15:54:34;28.07;51.24
70826;SHT31;58446;41.490;22.098;2023-09-19T15:57:02;28.01;51.46
70826;SHT31;58446;41.490;22.098;2023-09-19T15:59:28;27.93;51.71
70826;SHT31;58446;41.490;22.098;2023-09-19T16:01:55;27.97;51.91
70826;SHT31;58446;41.490;22.098;2023-09-19T16:04:21;27.94;51.96
70826;SHT31;58446;41.490;22.098;2023-09-19T16:06:46;27.86;52.32
70826;SHT31;58446;41.490;22.098;2023-09-19T16:09:12;27.80;52.33
70826;SHT31;58446;41.490;22.098;2023-09-19T16:11:44;27.76;52.57
70826;SHT31;58446;41.490;22.098;2023-09-19T16:14:10;27.71;52.77
70826;SHT31;58446;41.490;22.098;2023-09-19T16:16:36;27.70;52.89